Time;durP1;ratioP1;P1;durP2;ratioP2;P2;SDS_P1;SDS_P2;PMS_P1;PMS_P2;Temp;Humidity;BMP_temperature;BMP_pressure;BME280_temperature;BME280_humidity;BME280_pressure;Samples;Min_cycle;Max_cycle;Signal;HPM_P1;HPM_P2
2022/06/12 00:01:58;;;;;;;0.50;0.50;;;25.00;52.60;;;;;;5107177;28;20239;-63
2022/06/12 00:04:26;;;;;;;0.40;0.40;;;25.00;52.60;;;;;;5107357;28;20051;-63
2022/06/12 00:06:53;;;;;;;0.60;0.60;;;25.00;52.60;;;;;;5107386;28;20107;-63
2022/06/12 00:09:21;;;;;;;0.50;0.50;;;25.00;52.60;;;;;;5107173;28;20071;-64
2022/06/12 00:11:48;;;;;;;0.40;0.40;;;25.00;52.70;;;;;;5102645;28;20051;-64
2022/06/12 00:14:16;;;;;;;0.40;0.40;;;25.00;52.70;;;;;;5107547;28;20449;-63
2022/06/12 00:16:44;;;;;;;0.40;0.40;;;25.00;52.70;;;;;;5105450;28;20051;-63
2022/06/12 00:19:13;;;;;;;0.50;0.50;;;25.00;52.70;;;;;;5107151;28;20070;-64
2022/06/12 00:21:40;;;;;;;0.57;0.57;;;24.90;52.70;;;;;;5106512;28;20477;-64
2022/06/12 00:24:12;;;;;;;0.40;0.40;;;24.90;52.70;;;;;;5105931;28;20521;-63
2022/06/12 00:26:47;;;;;;;0.40;0.40;;;24.90;52.80;;;;;;5106811;28;20071;-63
2022/06/12 00:29:21;;;;;;;0.40;0.40;;;24.90;52.80;;;;;;5106784;28;20100;-64
2022/06/12 00:31:56;;;;;;;0.80;0.75;;;24.90;52.90;;;;;;5106083;28;20492;-63
2022/06/12 00:34:29;;;;;;;0.60;0.60;;;24.90;52.90;;;;;;5088647;28;20135;-64
2022/06/12 00:36:57;;;;;;;0.75;0.75;;;24.90;52.90;;;;;;5106712;28;20119;-63
2022/06/12 00:39:25;;;;;;;0.55;0.55;;;24.90;52.90;;;;;;5106803;28;20055;-63
2022/06/12 00:41:55;;;;;;;0.47;0.47;;;24.90;52.90;;;;;;5101961;28;20097;-63
2022/06/12 00:44:28;;;;;;;0.60;0.60;;;24.90;52.90;;;;;;5105383;28;20130;-63
2022/06/12 00:46:59;;;;;;;0.45;0.45;;;24.90;52.90;;;;;;5106614;28;20044;-63
2022/06/12 00:49:39;;;;;;;0.50;0.50;;;24.90;52.90;;;;;;5106321;28;20055;-63
2022/06/12 00:52:15;;;;;;;0.40;0.40;;;24.90;52.90;;;;;;5105600;28;20134;-63
2022/06/12 00:54:48;;;;;;;0.30;0.30;;;24.90;52.90;;;;;;5106824;27;20718;-63
2022/06/12 00:57:17;;;;;;;0.55;0.47;;;24.90;52.90;;;;;;5106439;28;20112;-66
2022/06/12 00:59:53;;;;;;;0.57;0.57;;;24.90;53.00;;;;;;5106022;28;20075;-64
2022/06/12 01:02:27;;;;;;;0.70;0.65;;;24.90;53.00;;;;;;5103949;28;20051;-64
2022/06/12 01:07:46;;;;;;;0.75;0.50;;;24.90;53.00;;;;;;5105716;28;20075;-63
2022/06/12 01:10:16;;;;;;;0.60;0.60;;;24.90;53.00;;;;;;5105948;28;20043;-63
2022/06/12 01:12:48;;;;;;;0.40;0.40;;;24.90;53.00;;;;;;5106083;28;20073;-63
2022/06/12 01:15:24;;;;;;;0.70;0.70;;;24.90;53.00;;;;;;5101782;28;20055;-63
2022/06/12 01:17:52;;;;;;;0.45;0.45;;;24.90;53.00;;;;;;5104979;28;20051;-63
2022/06/12 01:20:25;;;;;;;0.38;0.38;;;24.80;53.00;;;;;;5106093;28;20450;-65
2022/06/12 01:23:32;;;;;;;0.40;0.40;;;24.90;53.10;;;;;;5105548;28;20047;-63
2022/06/12 01:26:35;;;;;;;0.45;0.45;;;24.80;53.00;;;;;;5105632;28;20510;-63
2022/06/12 01:29:29;;;;;;;0.70;0.70;;;24.80;53.00;;;;;;5104636;28;20372;-64
2022/06/12 01:32:17;;;;;;;0.57;0.57;;;24.90;53.10;;;;;;5105921;28;20440;-64
2022/06/12 01:35:15;;;;;;;0.52;0.52;;;24.80;53.10;;;;;;5105412;28;20071;-63
2022/06/12 01:38:08;;;;;;;0.50;0.50;;;24.80;53.10;;;;;;5105260;28;20043;-63
2022/06/12 01:41:03;;;;;;;0.73;0.70;;;24.80;53.10;;;;;;5105204;28;20079;-64
2022/06/12 01:43:50;;;;;;;0.68;0.50;;;24.80;53.10;;;;;;5104079;28;20075;-63
2022/06/12 01:46:22;;;;;;;0.55;0.55;;;24.80;53.20;;;;;;5100852;28;20108;-63
2022/06/12 01:49:13;;;;;;;0.40;0.40;;;24.80;53.20;;;;;;5105568;28;20116;-63
2022/06/12 01:51:56;;;;;;;;;;;24.80;53.20;;;;;;5105834;28;20472;-63
2022/06/12 01:54:41;;;;;;;0.88;0.70;;;24.80;53.20;;;;;;5105251;28;20303;-63
2022/06/12 01:57:22;;;;;;;1.13;0.70;;;24.80;53.20;;;;;;5105346;28;20055;-64
2022/06/12 01:59:57;;;;;;;0.50;0.50;;;24.80;53.20;;;;;;5105247;28;20043;-64
2022/06/12 02:02:34;;;;;;;0.65;0.57;;;24.80;53.20;;;;;;5105588;28;20085;-63
2022/06/12 02:05:41;;;;;;;0.40;0.40;;;24.70;53.20;;;;;;5105502;28;20053;-63
2022/06/12 02:08:29;;;;;;;0.80;0.80;;;24.70;53.30;;;;;;5092919;28;20116;-63
2022/06/12 02:14:10;;;;;;;0.70;0.70;;;24.70;53.30;;;;;;5104972;28;20097;-64
2022/06/12 02:16:41;;;;;;;0.65;0.65;;;24.80;53.30;;;;;;5100547;28;20247;-64
2022/06/12 02:19:16;;;;;;;0.45;0.45;;;24.70;53.30;;;;;;5104274;28;20051;-64
2022/06/12 02:21:52;;;;;;;0.50;0.50;;;24.70;53.30;;;;;;5105272;28;20079;-64
2022/06/12 02:24:27;;;;;;;0.60;0.60;;;24.70;53.30;;;;;;5104785;28;20040;-64
2022/06/12 02:27:12;;;;;;;0.28;0.28;;;24.80;53.30;;;;;;5105175;28;20047;-65
2022/06/12 02:29:54;;;;;;;0.73;0.60;;;24.70;53.30;;;;;;5087686;28;20043;-64
2022/06/12 02:32:38;;;;;;;0.68;0.68;;;24.80;53.30;;;;;;5104747;28;20534;-66
2022/06/12 02:35:12;;;;;;;0.60;0.60;;;24.70;53.30;;;;;;5105313;28;20047;-64
2022/06/12 02:37:45;;;;;;;0.40;0.40;;;24.70;53.30;;;;;;5104304;28;20495;-64
2022/06/12 02:40:30;;;;;;;0.47;0.47;;;24.70;53.30;;;;;;5105147;28;20083;-63
2022/06/12 02:43:01;;;;;;;0.75;0.75;;;24.70;53.30;;;;;;5104340;28;20079;-63
2022/06/12 02:45:37;;;;;;;0.50;0.50;;;24.70;53.30;;;;;;5104907;28;20086;-63
2022/06/12 02:48:07;;;;;;;0.43;0.43;;;24.70;53.30;;;;;;5101842;28;20571;-63
2022/06/12 02:50:57;;;;;;;0.60;0.60;;;24.70;53.30;;;;;;5108523;28;20085;-65
2022/06/12 02:53:40;;;;;;;0.50;0.50;;;24.70;53.30;;;;;;5108954;28;20048;-63
2022/06/12 02:56:38;;;;;;;0.40;0.40;;;24.70;53.30;;;;;;5108241;28;20043;-63
2022/06/12 02:59:42;;;;;;;0.47;0.47;;;24.70;53.30;;;;;;5108219;27;20536;-63
2022/06/12 03:02:17;;;;;;;0.45;0.45;;;24.70;53.30;;;;;;5108122;28;20649;-63
2022/06/12 03:05:01;;;;;;;0.57;0.40;;;24.70;53.30;;;;;;5107516;28;20479;-63
2022/06/12 03:07:32;;;;;;;0.88;0.70;;;24.70;53.30;;;;;;5107649;27;20071;-63
2022/06/12 03:10:01;;;;;;;;;;;24.70;53.30;;;;;;5107876;28;20079;-63
2022/06/12 03:12:29;;;;;;;0.60;0.60;;;24.70;53.30;;;;;;5107349;28;20257;-64
2022/06/12 03:14:57;;;;;;;0.60;0.60;;;24.70;53.30;;;;;;5109114;28;20339;-63
2022/06/12 03:17:24;;;;;;;0.50;0.35;;;24.70;53.30;;;;;;5108189;28;20454;-63
2022/06/12 03:19:54;;;;;;;0.50;0.50;;;24.70;53.30;;;;;;5102020;28;20458;-64
2022/06/12 03:22:37;;;;;;;0.60;0.60;;;24.70;53.30;;;;;;5108386;28;20130;-63
2022/06/12 03:25:30;;;;;;;0.47;0.47;;;24.70;53.30;;;;;;5108005;28;20131;-63
2022/06/12 03:28:14;;;;;;;1.05;0.60;;;24.80;53.30;;;;;;5108444;28;20044;-64
2022/06/12 03:30:49;;;;;;;0.80;0.80;;;24.70;53.30;;;;;;5107054;28;20058;-64
2022/06/12 03:33:39;;;;;;;0.50;0.50;;;24.80;53.30;;;;;;5106635;28;20048;-64
2022/06/12 03:36:25;;;;;;;0.50;0.50;;;24.80;53.20;;;;;;5106493;28;20047;-63
2022/06/12 03:39:08;;;;;;;0.50;0.50;;;24.80;53.20;;;;;;5107738;28;20102;-64
2022/06/12 03:41:55;;;;;;;0.40;0.40;;;24.80;53.20;;;;;;5108005;27;20590;-63
2022/06/12 03:44:41;;;;;;;1.63;0.35;;;24.80;53.10;;;;;;5107493;28;20074;-63
2022/06/12 03:47:16;;;;;;;0.50;0.50;;;24.80;53.00;;;;;;5107370;28;20138;-63
2022/06/12 03:50:13;;;;;;;0.60;0.60;;;24.90;53.10;;;;;;5107869;28;20043;-64
2022/06/12 03:52:59;;;;;;;0.63;0.63;;;24.90;53.00;;;;;;5105544;27;20530;-63
2022/06/12 03:58:41;;;;;;;;;;;24.90;52.90;;;;;;5107201;28;20079;-63
2022/06/12 04:01:09;;;;;;;0.70;0.70;;;24.90;52.90;;;;;;5107452;28;19919;-63
2022/06/12 04:03:42;;;;;;;0.60;0.60;;;25.00;53.40;;;;;;5107255;28;20138;-63
2022/06/12 04:06:16;;;;;;;0.95;0.52;;;24.90;52.70;;;;;;5106249;28;20043;-63
2022/06/12 04:08:56;;;;;;;0.50;0.50;;;25.00;52.70;;;;;;5105069;28;20106;-63
2022/06/12 04:11:26;;;;;;;0.50;0.50;;;25.00;52.60;;;;;;5107261;28;20067;-63
2022/06/12 04:13:54;;;;;;;;;;;25.00;52.60;;;;;;5107599;28;20484;-63
2022/06/12 04:16:34;;;;;;;0.85;0.40;;;25.00;52.50;;;;;;5106845;28;19958;-63
2022/06/12 04:19:04;;;;;;;0.73;0.73;;;25.10;52.50;;;;;;5107187;28;20051;-64
2022/06/12 04:21:39;;;;;;;0.57;0.57;;;25.10;52.50;;;;;;5104465;28;20044;-63
2022/06/12 04:24:16;;;;;;;0.70;0.70;;;25.10;52.40;;;;;;5103981;28;20484;-63
2022/06/12 04:26:51;;;;;;;0.68;0.45;;;25.10;52.30;;;;;;5106390;28;20052;-63
2022/06/12 04:29:29;;;;;;;0.55;0.50;;;25.20;52.30;;;;;;5106772;28;20047;-63
2022/06/12 04:31:59;;;;;;;0.73;0.70;;;25.20;52.20;;;;;;5106640;28;20086;-64
2022/06/12 04:34:39;;;;;;;0.50;0.50;;;25.20;52.10;;;;;;5107226;28;20131;-63
2022/06/12 04:37:17;;;;;;;0.60;0.60;;;25.30;52.10;;;;;;5106763;28;20134;-64
2022/06/12 04:39:46;;;;;;;0.50;0.50;;;25.30;52.00;;;;;;5106779;28;20040;-63
2022/06/12 04:42:15;;;;;;;0.50;0.50;;;25.30;51.90;;;;;;5106497;28;20100;-63
2022/06/12 04:44:43;;;;;;;0.47;0.47;;;25.40;51.90;;;;;;5106248;28;20100;-63
2022/06/12 04:47:14;;;;;;;0.55;0.55;;;25.40;51.80;;;;;;5106429;28;20551;-63
2022/06/12 04:49:41;;;;;;;0.57;0.57;;;25.40;51.80;;;;;;5106272;28;20070;-64
2022/06/12 04:52:11;;;;;;;0.60;0.60;;;25.40;51.70;;;;;;5105580;28;20138;-63
2022/06/12 04:54:39;;;;;;;0.43;0.43;;;25.40;51.70;;;;;;5083936;28;20308;-63
2022/06/12 04:57:09;;;;;;;0.52;0.52;;;25.40;51.60;;;;;;5106466;28;20304;-63
2022/06/12 04:59:36;;;;;;;0.40;0.40;;;25.50;51.60;;;;;;5106180;28;20399;-63
2022/06/12 05:02:04;;;;;;;0.40;0.40;;;25.50;51.60;;;;;;5106255;28;20073;-63
2022/06/12 05:04:32;;;;;;;0.60;0.60;;;25.50;51.50;;;;;;5106175;28;20427;-63
2022/06/12 05:07:00;;;;;;;0.50;0.50;;;25.50;51.50;;;;;;5106484;28;20128;-64
2022/06/12 05:09:33;;;;;;;0.57;0.57;;;25.60;51.40;;;;;;5105475;28;20047;-63
2022/06/12 05:12:00;;;;;;;0.75;0.75;;;25.50;51.30;;;;;;5106614;28;20048;-63
2022/06/12 05:14:27;;;;;;;0.52;0.52;;;25.40;51.30;;;;;;5105439;28;20130;-63
2022/06/12 05:17:01;;;;;;;0.60;0.60;;;25.30;51.40;;;;;;5104710;28;20518;-63
2022/06/12 05:19:34;;;;;;;0.68;0.68;;;25.10;51.60;;;;;;5106129;28;20080;-63
2022/06/12 05:22:03;;;;;;;1.08;0.60;;;25.00;52.50;;;;;;5104934;28;20454;-64
2022/06/12 05:24:31;;;;;;;0.80;0.80;;;24.80;52.20;;;;;;5105469;28;20122;-63
2022/06/12 05:26:59;;;;;;;0.30;0.30;;;24.60;52.60;;;;;;5100571;28;20047;-63
2022/06/12 05:29:32;;;;;;;1.20;1.20;;;24.30;53.00;;;;;;5105855;28;20519;-63
2022/06/12 05:32:00;;;;;;;0.80;0.80;;;24.10;53.40;;;;;;5105250;28;20039;-63
2022/06/12 05:34:28;;;;;;;1.20;0.80;;;23.90;53.20;;;;;;5105659;28;20055;-63
2022/06/12 05:36:57;;;;;;;1.05;1.05;;;23.60;52.80;;;;;;5106158;28;20504;-63
2022/06/12 05:39:24;;;;;;;0.90;0.90;;;23.40;52.40;;;;;;5104335;28;20078;-63
2022/06/12 05:41:52;;;;;;;0.80;0.80;;;23.10;52.40;;;;;;5105423;28;20805;-63
2022/06/12 05:44:20;;;;;;;1.00;1.00;;;22.80;52.00;;;;;;5105533;28;20126;-63
2022/06/12 05:46:55;;;;;;;1.15;1.15;;;22.50;51.90;;;;;;5105660;28;20058;-63
2022/06/12 05:49:23;;;;;;;0.90;0.90;;;22.20;52.10;;;;;;5105300;28;20055;-63
2022/06/12 05:51:50;;;;;;;0.93;0.93;;;21.90;51.90;;;;;;5105439;28;20075;-63
2022/06/12 05:54:17;;;;;;;1.00;1.00;;;21.70;52.30;;;;;;5105871;28;20059;-63
2022/06/12 05:56:44;;;;;;;2.25;1.23;;;21.50;52.90;;;;;;5100499;28;20044;-63
2022/06/12 05:59:12;;;;;;;1.17;0.90;;;21.20;53.20;;;;;;5105692;28;20044;-64
2022/06/12 06:01:41;;;;;;;0.90;0.90;;;21.00;53.30;;;;;;5105633;28;20240;-63
2022/06/12 06:04:09;;;;;;;0.93;0.93;;;20.80;53.90;;;;;;5105579;28;20438;-63
2022/06/12 06:06:43;;;;;;;1.60;1.23;;;20.70;54.50;;;;;;5103786;28;20078;-64
2022/06/12 06:09:11;;;;;;;1.10;1.10;;;20.60;54.70;;;;;;5103510;28;20081;-63
2022/06/12 06:11:40;;;;;;;1.00;1.00;;;20.40;54.30;;;;;;5103635;28;20055;-63
2022/06/12 06:14:08;;;;;;;0.90;0.90;;;20.30;54.70;;;;;;5105510;28;20071;-64
2022/06/12 06:16:36;;;;;;;0.98;0.98;;;20.20;54.60;;;;;;5104115;28;20100;-63
2022/06/12 06:19:04;;;;;;;1.13;1.13;;;20.10;54.90;;;;;;5087708;28;20518;-63
2022/06/12 06:21:31;;;;;;;1.25;1.25;;;20.00;54.90;;;;;;5107096;28;20100;-64
2022/06/12 06:23:59;;;;;;;1.50;1.45;;;19.90;55.50;;;;;;5109263;28;20551;-63
2022/06/12 06:26:27;;;;;;;1.27;1.17;;;19.90;56.00;;;;;;5108877;28;20112;-63
2022/06/12 06:28:57;;;;;;;1.23;1.15;;;19.90;56.00;;;;;;5104553;28;20053;-63
2022/06/12 06:31:25;;;;;;;1.05;1.05;;;19.80;55.80;;;;;;5108900;28;20340;-63
2022/06/12 06:33:52;;;;;;;1.63;1.52;;;19.70;55.70;;;;;;5107435;28;20078;-63
2022/06/12 06:36:20;;;;;;;1.38;1.30;;;19.70;56.00;;;;;;5108090;28;20071;-63
2022/06/12 06:38:51;;;;;;;1.20;1.20;;;19.60;56.00;;;;;;5107625;28;20095;-63
2022/06/12 06:41:19;;;;;;;1.40;1.30;;;19.60;56.60;;;;;;5108819;28;20617;-63
2022/06/12 06:46:33;;;;;;;2.08;1.55;;;19.60;56.50;;;;;;5108533;28;20467;-63
2022/06/12 06:49:01;;;;;;;1.70;1.60;;;19.50;56.40;;;;;;5108981;28;20055;-63
2022/06/12 06:51:29;;;;;;;1.40;1.40;;;19.40;56.40;;;;;;5108445;28;20048;-63
2022/06/12 06:53:58;;;;;;;1.35;1.35;;;19.40;56.70;;;;;;5109240;28;20096;-63
2022/06/12 06:56:26;;;;;;;1.60;1.50;;;19.40;56.80;;;;;;5108130;27;20104;-63
2022/06/12 06:58:53;;;;;;;1.55;1.45;;;19.40;56.80;;;;;;5107053;28;20159;-63
2022/06/12 07:01:21;;;;;;;2.92;1.90;;;19.40;57.20;;;;;;5088043;28;20063;-63
2022/06/12 07:03:48;;;;;;;1.40;1.40;;;19.30;57.40;;;;;;5108505;28;20060;-63
2022/06/12 07:06:16;;;;;;;1.75;1.65;;;19.30;57.00;;;;;;5108908;28;20434;-64
2022/06/12 07:08:51;;;;;;;1.48;1.40;;;19.30;57.30;;;;;;5107535;28;20135;-63
2022/06/12 07:11:19;;;;;;;1.42;1.42;;;19.30;57.20;;;;;;5108604;28;20311;-63
2022/06/12 07:13:46;;;;;;;1.52;1.48;;;19.30;57.70;;;;;;5108874;28;20036;-63
2022/06/12 07:16:13;;;;;;;1.65;1.55;;;19.30;57.40;;;;;;5108353;28;20495;-63
2022/06/12 07:18:41;;;;;;;1.80;1.70;;;19.30;57.90;;;;;;5108358;28;20047;-62
2022/06/12 07:21:08;;;;;;;1.52;1.42;;;19.30;57.50;;;;;;5108035;28;20491;-63
2022/06/12 07:23:35;;;;;;;1.73;1.63;;;19.30;57.60;;;;;;5108204;28;20043;-63
2022/06/12 07:26:07;;;;;;;1.50;1.40;;;19.30;58.00;;;;;;5108569;27;20330;-63
2022/06/12 07:28:37;;;;;;;1.30;1.30;;;19.30;58.00;;;;;;5107477;28;20044;-63
2022/06/12 07:31:06;;;;;;;1.65;1.65;;;19.40;57.70;;;;;;5103616;28;20374;-63
2022/06/12 07:33:34;;;;;;;1.60;1.50;;;19.40;57.60;;;;;;5107694;28;20051;-63
2022/06/12 07:36:03;;;;;;;1.30;1.30;;;19.30;57.70;;;;;;5107858;28;20105;-63
2022/06/12 07:38:30;;;;;;;2.13;1.65;;;19.40;57.70;;;;;;5108465;28;20047;-63
2022/06/12 07:41:01;;;;;;;1.70;1.70;;;19.30;57.90;;;;;;5108456;28;20135;-63
2022/06/12 07:43:30;;;;;;;1.58;1.58;;;19.30;57.70;;;;;;5107830;28;20136;-63
2022/06/12 07:45:57;;;;;;;1.30;1.30;;;19.30;57.80;;;;;;5107459;28;20096;-63
2022/06/12 07:48:25;;;;;;;1.65;1.55;;;19.30;57.80;;;;;;5107156;28;20039;-63
2022/06/12 07:50:54;;;;;;;1.88;1.77;;;19.30;57.80;;;;;;5107860;28;20071;-63
2022/06/12 07:53:22;;;;;;;1.45;1.45;;;19.30;57.80;;;;;;5107665;28;20108;-62
2022/06/12 07:55:51;;;;;;;1.52;1.42;;;19.30;58.30;;;;;;5106551;28;20074;-63
2022/06/12 07:58:20;;;;;;;1.70;1.60;;;19.30;58.30;;;;;;5107640;28;20044;-63
2022/06/12 08:00:54;;;;;;;1.75;1.65;;;19.30;58.60;;;;;;5105950;28;20466;-63
2022/06/12 08:03:22;;;;;;;1.45;1.35;;;19.30;59.00;;;;;;5102515;28;20048;-63
2022/06/12 08:05:49;;;;;;;1.70;1.60;;;19.30;59.00;;;;;;5107959;28;20330;-63
2022/06/12 08:08:17;;;;;;;1.92;1.70;;;19.40;59.30;;;;;;5106867;28;20047;-63
2022/06/12 08:10:44;;;;;;;1.77;1.67;;;19.40;59.40;;;;;;5107273;28;20531;-62
2022/06/12 08:13:11;;;;;;;1.50;1.40;;;19.40;59.30;;;;;;5106935;28;20122;-62
2022/06/12 08:15:44;;;;;;;1.58;1.58;;;19.40;59.20;;;;;;5106402;28;20089;-63
2022/06/12 08:18:13;;;;;;;1.98;1.88;;;19.50;59.10;;;;;;5106655;28;20048;-62
2022/06/12 08:20:46;;;;;;;1.85;1.75;;;19.50;59.30;;;;;;5107198;27;20054;-62
2022/06/12 08:23:26;;;;;;;1.85;1.75;;;19.40;59.30;;;;;;5106443;27;20040;-63
2022/06/12 08:26:00;;;;;;;1.63;1.52;;;19.40;59.10;;;;;;5105650;28;20051;-62
2022/06/12 08:28:31;;;;;;;1.45;1.45;;;19.40;59.70;;;;;;5105395;28;20500;-62
2022/06/12 08:31:05;;;;;;;2.65;1.85;;;19.40;59.70;;;;;;5106740;27;20229;-62
2022/06/12 08:33:34;;;;;;;1.70;1.60;;;19.40;59.60;;;;;;5104986;28;20070;-63
2022/06/12 08:36:02;;;;;;;1.98;1.60;;;19.40;59.50;;;;;;5103482;28;20408;-62
2022/06/12 08:38:29;;;;;;;1.80;1.70;;;19.50;59.50;;;;;;5107170;28;20077;-62
2022/06/12 08:41:10;;;;;;;1.38;1.38;;;19.40;59.50;;;;;;5106917;28;20093;-63
2022/06/12 08:43:47;;;;;;;;;;;19.40;59.40;;;;;;5106630;28;20487;-63
2022/06/12 08:46:24;;;;;;;1.67;1.58;;;19.40;59.20;;;;;;5106338;28;19920;-63
2022/06/12 08:49:00;;;;;;;1.40;1.40;;;19.40;59.30;;;;;;5104574;28;20515;-62
2022/06/12 08:51:39;;;;;;;1.58;1.48;;;19.40;59.20;;;;;;5104851;28;20047;-63
2022/06/12 08:54:17;;;;;;;2.17;2.08;;;19.40;59.30;;;;;;5106837;28;20104;-62
2022/06/12 08:56:52;;;;;;;1.70;1.60;;;19.40;59.20;;;;;;5106290;28;20065;-63
2022/06/12 08:59:34;;;;;;;1.70;1.60;;;19.40;59.20;;;;;;5104886;28;20136;-63
2022/06/12 09:02:12;;;;;;;1.90;1.80;;;19.30;59.30;;;;;;5106674;28;20359;-63
2022/06/12 09:04:40;;;;;;;1.38;1.38;;;19.30;59.40;;;;;;5105359;28;20039;-63
2022/06/12 09:07:22;;;;;;;1.40;1.40;;;19.30;59.40;;;;;;5101688;28;20104;-64
2022/06/12 09:10:04;;;;;;;1.77;1.50;;;19.30;59.70;;;;;;5104786;28;20044;-63
2022/06/12 09:12:46;;;;;;;1.40;1.40;;;19.30;59.60;;;;;;5106433;28;20043;-63
2022/06/12 09:15:27;;;;;;;1.75;1.65;;;19.30;59.60;;;;;;5106246;28;20423;-63
2022/06/12 09:18:18;;;;;;;1.63;1.52;;;19.30;59.80;;;;;;5106200;28;20047;-63
2022/06/12 09:21:11;;;;;;;1.65;1.55;;;19.30;60.00;;;;;;5104738;28;20138;-63
2022/06/12 09:24:05;;;;;;;1.52;1.52;;;19.30;60.00;;;;;;5095205;28;20064;-63
2022/06/12 09:26:54;;;;;;;1.70;1.60;;;19.40;60.00;;;;;;5105539;28;20097;-63
2022/06/12 09:29:49;;;;;;;1.70;1.60;;;19.40;60.10;;;;;;5105206;28;20090;-63
2022/06/12 09:32:54;;;;;;;1.20;1.20;;;19.40;60.00;;;;;;5106561;28;20071;-63
2022/06/12 09:35:48;;;;;;;1.50;1.40;;;19.40;60.00;;;;;;5104912;28;20441;-63
2022/06/12 09:38:55;;;;;;;1.35;1.35;;;19.40;60.00;;;;;;5100979;28;20040;-63
2022/06/12 09:41:37;;;;;;;1.88;1.77;;;19.40;60.00;;;;;;5105472;27;20097;-63
2022/06/12 09:44:37;;;;;;;1.73;1.63;;;19.40;60.00;;;;;;5104357;28;20127;-63
2022/06/12 09:47:12;;;;;;;1.33;1.30;;;19.50;60.50;;;;;;5104956;28;20109;-63
2022/06/12 09:50:07;;;;;;;1.40;1.40;;;19.50;60.40;;;;;;5104896;28;20059;-63
2022/06/12 09:52:57;;;;;;;1.35;1.35;;;19.50;60.10;;;;;;5105862;28;20252;-63
2022/06/12 09:55:39;;;;;;;1.65;1.20;;;19.50;59.90;;;;;;5107617;28;20508;-63
2022/06/12 09:58:26;;;;;;;1.15;1.15;;;19.60;59.70;;;;;;5111915;27;20500;-63
2022/06/12 10:01:04;;;;;;;1.45;1.45;;;19.60;59.60;;;;;;5112190;27;20504;-63
2022/06/12 10:03:41;;;;;;;1.30;1.30;;;19.50;59.40;;;;;;5112120;27;20558;-64
2022/06/12 10:06:32;;;;;;;1.70;1.60;;;19.50;59.50;;;;;;5112236;27;20039;-63
2022/06/12 10:09:12;;;;;;;1.23;1.23;;;19.50;59.30;;;;;;5108833;27;20243;-63
2022/06/12 10:12:03;;;;;;;1.48;1.40;;;19.50;59.40;;;;;;5112341;27;20108;-63
2022/06/12 10:14:52;;;;;;;1.45;1.40;;;19.40;59.30;;;;;;5111524;27;20136;-63
2022/06/12 10:17:38;;;;;;;1.13;1.13;;;19.40;59.20;;;;;;5110804;28;20047;-63
2022/06/12 10:20:20;;;;;;;1.33;1.25;;;19.40;59.20;;;;;;5111445;27;20042;-64
2022/06/12 10:22:51;;;;;;;1.10;1.10;;;19.40;59.40;;;;;;5112345;27;20274;-64
2022/06/12 10:25:38;;;;;;;1.33;1.30;;;19.30;59.40;;;;;;5111985;27;20048;-64
2022/06/12 10:28:23;;;;;;;1.58;1.48;;;19.30;59.40;;;;;;5111789;27;20096;-63
2022/06/12 10:31:18;;;;;;;1.30;1.30;;;19.20;59.40;;;;;;5111751;27;20051;-64
2022/06/12 10:34:04;;;;;;;1.20;1.20;;;19.20;60.10;;;;;;5111799;27;20126;-63
2022/06/12 10:36:33;;;;;;;1.27;1.20;;;19.20;60.10;;;;;;5111812;27;20056;-64
2022/06/12 10:39:20;;;;;;;1.10;1.10;;;19.20;60.00;;;;;;5112071;27;20132;-63
2022/06/12 10:41:57;;;;;;;1.05;1.05;;;19.30;59.90;;;;;;5105984;28;20046;-63
2022/06/12 10:44:43;;;;;;;1.10;1.10;;;19.30;59.90;;;;;;5112160;27;20051;-63
2022/06/12 10:47:22;;;;;;;1.02;1.02;;;19.30;59.60;;;;;;5094209;28;20086;-62
2022/06/12 10:50:20;;;;;;;1.20;1.13;;;19.30;59.20;;;;;;5110292;28;20469;-63
2022/06/12 10:53:02;;;;;;;1.00;1.00;;;19.30;59.00;;;;;;5096309;28;20324;-62
2022/06/12 10:55:59;;;;;;;1.00;1.00;;;19.30;58.80;;;;;;5111586;27;20079;-63
2022/06/12 10:58:53;;;;;;;1.10;1.10;;;19.20;58.70;;;;;;5110698;28;20036;-63
2022/06/12 11:01:37;;;;;;;1.02;1.02;;;19.20;58.50;;;;;;5111457;27;20593;-62
2022/06/12 11:04:20;;;;;;;0.90;0.90;;;19.20;58.60;;;;;;5111223;28;20473;-63
2022/06/12 11:07:03;;;;;;;1.10;1.10;;;19.10;58.60;;;;;;5110059;27;20565;-63
2022/06/12 11:09:43;;;;;;;1.00;0.90;;;19.10;58.90;;;;;;5108192;28;20048;-63
2022/06/12 11:12:43;;;;;;;1.02;1.02;;;19.10;59.00;;;;;;5107038;28;20047;-63
2022/06/12 11:15:34;;;;;;;1.00;1.00;;;19.10;59.10;;;;;;5108311;28;20451;-63
2022/06/12 11:18:27;;;;;;;1.15;1.10;;;19.10;59.20;;;;;;5108682;28;20403;-63
2022/06/12 11:21:27;;;;;;;1.15;1.15;;;19.10;59.40;;;;;;5106393;28;20082;-62
2022/06/12 11:24:15;;;;;;;0.98;0.98;;;19.10;59.40;;;;;;5107140;28;20555;-63
2022/06/12 11:27:09;;;;;;;1.30;1.30;;;19.10;59.90;;;;;;5107668;28;20079;-63
2022/06/12 11:30:01;;;;;;;0.70;0.70;;;19.10;59.80;;;;;;5108018;28;20092;-63
2022/06/12 11:32:57;;;;;;;1.20;1.10;;;19.20;59.80;;;;;;5107608;28;20086;-63
2022/06/12 11:35:37;;;;;;;0.85;0.85;;;19.20;59.60;;;;;;5107290;28;20515;-63
2022/06/12 11:38:35;;;;;;;0.95;0.95;;;19.20;59.50;;;;;;5107481;28;20083;-63
2022/06/12 11:41:34;;;;;;;0.95;0.95;;;19.20;59.40;;;;;;5107658;28;20445;-63
2022/06/12 11:44:30;;;;;;;1.20;1.20;;;19.20;59.50;;;;;;5106446;28;20104;-63
2022/06/12 11:47:10;;;;;;;1.10;1.10;;;19.20;59.70;;;;;;5107524;28;20047;-63
2022/06/12 11:50:00;;;;;;;1.17;1.17;;;19.20;59.70;;;;;;5108291;28;20040;-63
2022/06/12 11:52:43;;;;;;;1.08;1.08;;;19.20;59.60;;;;;;5107057;28;20036;-63
2022/06/12 11:55:26;;;;;;;1.40;1.35;;;19.20;59.60;;;;;;5106297;28;20060;-62
2022/06/12 11:58:18;;;;;;;1.13;1.13;;;19.20;59.50;;;;;;5106211;28;20407;-62
2022/06/12 12:01:10;;;;;;;1.17;1.17;;;19.20;59.40;;;;;;5106788;28;20036;-63
2022/06/12 12:04:17;;;;;;;1.38;1.25;;;19.30;59.50;;;;;;5107249;28;20092;-63
2022/06/12 12:07:20;;;;;;;1.10;1.10;;;19.30;59.50;;;;;;5107159;28;20043;-62
2022/06/12 12:10:21;;;;;;;1.05;0.98;;;19.30;59.60;;;;;;5107308;28;20047;-63
2022/06/12 12:12:56;;;;;;;1.10;1.10;;;19.30;59.90;;;;;;5105933;28;20044;-62
2022/06/12 12:15:35;;;;;;;1.10;0.93;;;19.30;59.90;;;;;;5107203;28;20047;-62
2022/06/12 12:18:07;;;;;;;1.10;1.10;;;19.30;59.80;;;;;;5102769;28;20092;-62
2022/06/12 12:20:38;;;;;;;1.00;1.00;;;19.30;60.00;;;;;;5107149;28;20048;-62
2022/06/12 12:23:13;;;;;;;1.27;1.27;;;19.30;60.20;;;;;;5107012;28;20308;-64
2022/06/12 12:25:48;;;;;;;1.10;1.10;;;19.30;60.20;;;;;;5106843;28;20052;-62
2022/06/12 12:28:33;;;;;;;1.23;1.23;;;19.40;60.20;;;;;;5105082;28;20236;-62
2022/06/12 12:31:08;;;;;;;1.10;1.10;;;19.40;60.20;;;;;;5107193;28;20470;-62
2022/06/12 12:33:38;;;;;;;1.85;1.13;;;19.40;60.10;;;;;;5105513;28;20090;-62
2022/06/12 12:41:52;;;;;;;1.00;1.00;;;19.40;60.20;;;;;;5106651;28;20040;-62
2022/06/12 12:44:36;;;;;;;0.98;0.98;;;19.50;60.20;;;;;;5106802;28;20051;-62
2022/06/12 12:47:19;;;;;;;1.10;1.10;;;19.50;60.10;;;;;;5105245;28;20055;-61
2022/06/12 12:49:47;;;;;;;1.10;1.10;;;19.50;60.10;;;;;;5101982;28;20047;-62
2022/06/12 12:52:21;;;;;;;1.10;1.00;;;19.50;60.10;;;;;;5106196;28;20134;-62
2022/06/12 12:54:56;;;;;;;1.10;1.10;;;19.60;60.40;;;;;;5107168;28;20100;-62
2022/06/12 12:57:41;;;;;;;1.10;1.10;;;19.60;60.40;;;;;;5106539;28;20082;-62
2022/06/12 13:00:33;;;;;;;0.90;0.90;;;19.70;60.40;;;;;;5106639;28;20278;-62
2022/06/12 13:03:31;;;;;;;0.90;0.90;;;19.70;60.40;;;;;;5105489;28;20051;-62
2022/06/12 13:06:16;;;;;;;1.55;1.00;;;19.80;60.40;;;;;;5104871;28;20123;-62
2022/06/12 13:09:17;;;;;;;1.30;1.20;;;19.80;60.40;;;;;;5106337;28;20108;-62
2022/06/12 13:12:18;;;;;;;1.15;1.15;;;19.80;60.20;;;;;;5087872;28;20139;-62
2022/06/12 13:15:22;;;;;;;1.10;1.00;;;19.90;60.20;;;;;;5106158;28;20048;-62
2022/06/12 13:18:09;;;;;;;1.05;1.05;;;20.00;60.20;;;;;;5104502;28;20043;-62
2022/06/12 13:21:15;;;;;;;1.27;1.15;;;20.00;60.00;;;;;;5101771;28;20130;-62
2022/06/12 13:24:22;;;;;;;1.02;1.02;;;20.00;60.10;;;;;;5104940;28;20136;-62
2022/06/12 13:26:49;;;;;;;0.57;0.57;;;20.10;60.20;;;;;;5106324;28;20540;-62
2022/06/12 13:29:19;;;;;;;1.08;1.08;;;20.10;59.90;;;;;;5105561;28;20533;-63
2022/06/12 13:32:01;;;;;;;0.90;0.90;;;20.10;60.00;;;;;;5104353;28;20051;-62
2022/06/12 13:34:33;;;;;;;1.13;1.13;;;20.10;60.00;;;;;;5105560;28;20126;-62
2022/06/12 13:37:04;;;;;;;0.95;0.95;;;20.10;59.90;;;;;;5105653;28;20051;-62
2022/06/12 13:39:36;;;;;;;0.88;0.88;;;20.10;60.00;;;;;;5106030;28;20472;-62
2022/06/12 13:42:08;;;;;;;0.98;0.98;;;20.20;60.00;;;;;;5104876;28;20255;-62
2022/06/12 13:44:43;;;;;;;0.70;0.70;;;20.20;60.00;;;;;;5088234;28;20296;-62
2022/06/12 13:47:32;;;;;;;1.05;1.05;;;20.20;60.10;;;;;;5105691;28;20044;-62
2022/06/12 13:50:26;;;;;;;0.85;0.85;;;20.20;60.00;;;;;;5105065;28;20083;-62
2022/06/12 13:53:04;;;;;;;0.98;0.98;;;20.30;60.00;;;;;;5101806;28;20123;-62
2022/06/12 13:55:59;;;;;;;0.90;0.90;;;20.30;60.00;;;;;;5106383;28;20052;-62
2022/06/12 13:58:40;;;;;;;0.90;0.90;;;20.30;59.80;;;;;;5107161;28;20075;-63
2022/06/12 14:01:30;;;;;;;1.35;1.00;;;20.40;59.90;;;;;;5105636;28;20075;-62